Haliut, China
Current Conditions -  °F | °C
As of 10:00 PM on Monday 22 Dec 2014 (Local Time) from ZBHH Reporting Station
Clear Clear  
Wind Chill:   Ceiling: Unl
Heat Index: 10°   Visibility: 6mi
Dew Point: -2°   Wind: 7mph
Humidity: 57%   Direction: 60°ENE
Pressure: 30.15"   Gusts: NA
Location:  41.57°N, 108.52°E
Report Text: ZBHH 221400Z 06003MPS 030V110 CAVOK M12/M19 Q1021 NOSIG
Loading
Personal Weather Stations






























Interactive Weather Map New forecast layout! Learn more

10-Day Weather Forecast

Advertisements
Track Severe Weather on mobile